createdAt,value
2022-10-04T00:03:51.510Z,96260.72
2022-10-04T00:09:19.710Z,96272.03
2022-10-04T00:14:33.216Z,96285.34
2022-10-04T00:19:41.158Z,96289.84
2022-10-04T00:25:05.351Z,96281.22
2022-10-04T00:30:07.710Z,96282.53
2022-10-04T00:35:28.146Z,96288.06
2022-10-04T00:40:42.800Z,96284.78
2022-10-04T00:45:51.808Z,96290.41
2022-10-04T00:51:28.655Z,96236.56
2022-10-04T00:56:40.363Z,96258.66
2022-10-04T01:01:45.833Z,96293.69
2022-10-04T01:06:48.394Z,96268.78
2022-10-04T01:12:02.642Z,96278.59
2022-10-04T01:17:05.278Z,96235.50
2022-10-04T01:22:32.294Z,96271.88
2022-10-04T01:27:41.387Z,96259.03
2022-10-04T01:32:46.355Z,96280.50
2022-10-04T01:37:53.319Z,96264.66
2022-10-04T01:43:06.024Z,96271.66
2022-10-04T01:48:16.793Z,96292.00
2022-10-04T01:53:44.601Z,96293.88
2022-10-04T01:58:54.322Z,96266.78
2022-10-04T02:04:10.350Z,96295.47
2022-10-04T02:09:22.867Z,96276.06
2022-10-04T02:14:29.182Z,96289.28
2022-10-04T02:19:38.124Z,96278.78
2022-10-04T02:24:47.093Z,96285.25
2022-10-04T02:29:49.466Z,96265.31
2022-10-04T02:34:52.845Z,96259.31
2022-10-04T02:40:03.674Z,96275.06
2022-10-04T02:45:38.048Z,96282.81
2022-10-04T02:50:53.421Z,96279.84
2022-10-04T02:55:56.749Z,96261.00
2022-10-04T03:01:01.264Z,96277.66
2022-10-04T03:06:18.414Z,96315.50
2022-10-04T03:11:24.149Z,96301.81
2022-10-04T03:16:27.255Z,96312.31
2022-10-04T03:21:32.158Z,96309.28
2022-10-04T03:26:43.208Z,96313.81
2022-10-04T03:31:49.025Z,96284.25
2022-10-04T03:36:58.923Z,96339.19
2022-10-04T03:42:11.123Z,96296.19
2022-10-04T03:47:21.802Z,96339.69
2022-10-04T03:52:35.463Z,96336.03
2022-10-04T03:57:38.634Z,96267.44
2022-10-04T04:02:50.500Z,96302.94
2022-10-04T04:08:06.908Z,96333.69
2022-10-04T04:13:15.381Z,96352.06
2022-10-04T04:18:40.828Z,96294.50
2022-10-04T04:24:09.759Z,96353.81
2022-10-04T04:29:15.123Z,96368.03
2022-10-04T04:35:27.345Z,96336.44
2022-10-04T04:40:29.744Z,96364.41
2022-10-04T04:45:34.371Z,96364.31
2022-10-04T04:50:40.101Z,96388.59
2022-10-04T04:56:03.910Z,96353.16
2022-10-04T05:01:23.468Z,96383.81
2022-10-04T05:06:27.626Z,96350.72
2022-10-04T05:11:38.932Z,96381.03
2022-10-04T05:16:47.463Z,96395.38
2022-10-04T05:21:53.299Z,96373.06
2022-10-04T05:27:06.605Z,96420.31
2022-10-04T05:32:40.503Z,96415.06
2022-10-04T05:37:57.877Z,96416.94
2022-10-04T05:43:00.449Z,96398.00
2022-10-04T05:48:09.149Z,96406.59
2022-10-04T05:53:31.542Z,96439.81
2022-10-04T05:59:08.676Z,96432.28
2022-10-04T06:04:13.942Z,96459.88
2022-10-04T06:09:46.127Z,96437.06
2022-10-04T06:15:50.226Z,96448.72
2022-10-04T06:21:36.624Z,96463.81
2022-10-04T06:26:46.289Z,96466.72
2022-10-04T06:32:23.970Z,96502.75
2022-10-04T06:37:29.358Z,96505.69
2022-10-04T06:42:42.541Z,96464.19
2022-10-04T06:47:50.130Z,96496.94
2022-10-04T06:53:16.995Z,96507.50
2022-10-04T06:58:34.909Z,96475.84
2022-10-04T07:03:51.227Z,96517.03
2022-10-04T07:08:59.952Z,96480.81
2022-10-04T07:14:20.738Z,96524.94
2022-10-04T07:19:50.343Z,96497.44
2022-10-04T07:24:56.267Z,96530.66
2022-10-04T07:30:02.310Z,96521.28
2022-10-04T07:35:31.558Z,96531.13
2022-10-04T07:40:41.011Z,96535.25
2022-10-04T07:45:43.433Z,96482.63
2022-10-04T07:51:03.967Z,96554.88
2022-10-04T07:56:21.665Z,96536.75
2022-10-04T08:01:43.045Z,96563.53
2022-10-04T08:07:13.825Z,96562.16
2022-10-04T08:12:54.923Z,96536.97
2022-10-04T08:18:19.795Z,96538.84
2022-10-04T08:23:41.283Z,96568.38
2022-10-04T08:29:13.041Z,96564.22
2022-10-04T08:34:52.356Z,96561.97
2022-10-04T08:40:12.658Z,96564.91
2022-10-04T08:45:28.779Z,96546.09
2022-10-04T08:50:55.305Z,96557.06
2022-10-04T08:56:10.521Z,96555.47
2022-10-04T09:01:25.705Z,96553.06
2022-10-04T09:06:28.294Z,96564.44
2022-10-04T09:11:38.708Z,96561.31
2022-10-04T09:17:10.418Z,96550.66
2022-10-04T09:22:21.556Z,96561.97
2022-10-04T09:27:53.730Z,96560.72
2022-10-04T09:33:00.218Z,96543.25
2022-10-04T09:38:36.366Z,96566.34
2022-10-04T09:44:09.608Z,96563.16
2022-10-04T09:49:45.173Z,96571.56
2022-10-04T09:55:18.152Z,96591.53
2022-10-04T10:00:39.365Z,96591.91
2022-10-04T10:06:09.758Z,96567.28
2022-10-04T10:11:33.523Z,96572.59
2022-10-04T10:16:47.929Z,96542.88
2022-10-04T10:22:17.663Z,96572.94
2022-10-04T10:27:30.304Z,96544.50
2022-10-04T10:32:47.699Z,96587.44
2022-10-04T10:38:14.471Z,96575.97
2022-10-04T10:43:51.931Z,96548.94
2022-10-04T10:49:00.677Z,96564.66
2022-10-04T10:54:15.362Z,96561.84
2022-10-04T10:59:40.339Z,96567.88
2022-10-04T11:05:18.297Z,96545.78
2022-10-04T11:10:52.430Z,96560.13
2022-10-04T11:16:35.130Z,96579.13
2022-10-04T11:22:07.746Z,96583.69
2022-10-04T11:27:34.412Z,96598.88
2022-10-04T11:33:06.443Z,96535.41
2022-10-04T11:38:23.424Z,96570.38
2022-10-04T11:43:38.110Z,96590.38
2022-10-04T11:48:54.328Z,96602.16
2022-10-04T11:54:44.769Z,96556.69
2022-10-04T11:59:48.077Z,96593.25
2022-10-04T12:05:08.345Z,96591.97
2022-10-04T12:10:28.563Z,96584.31
2022-10-04T12:16:01.490Z,96587.38
2022-10-04T12:21:33.320Z,96564.41
2022-10-04T12:27:03.890Z,96523.66
2022-10-04T12:32:18.390Z,96549.22
2022-10-04T12:37:38.407Z,96576.72
2022-10-04T12:42:54.357Z,96586.59
2022-10-04T12:48:09.402Z,96539.72
2022-10-04T12:53:17.722Z,96586.13
2022-10-04T12:58:50.063Z,96554.78
2022-10-04T13:04:12.482Z,96532.53
2022-10-04T13:09:28.341Z,96587.16
2022-10-04T13:14:45.933Z,96582.88
2022-10-04T13:20:19.116Z,96589.75
2022-10-04T13:25:35.812Z,96583.25
2022-10-04T13:30:54.334Z,96540.81
2022-10-04T13:36:24.328Z,96563.91
2022-10-04T13:41:37.593Z,96589.66
2022-10-04T13:47:14.185Z,96593.25
2022-10-04T13:53:10.794Z,96599.50
2022-10-04T13:58:13.081Z,96611.75
2022-10-04T14:03:51.251Z,96589.75
2022-10-04T14:09:02.592Z,96610.59
2022-10-04T14:14:23.198Z,96626.47
2022-10-04T14:19:25.540Z,96638.03
2022-10-04T14:24:34.726Z,96638.72
2022-10-04T14:35:23.023Z,96652.13
2022-10-04T14:40:40.659Z,96641.44
2022-10-04T14:46:07.891Z,96648.28
2022-10-04T14:51:51.001Z,96657.28
2022-10-04T14:57:13.624Z,96661.53
2022-10-04T15:02:31.998Z,96665.84
2022-10-04T15:07:34.535Z,96686.38
2022-10-04T15:13:10.487Z,96678.53
2022-10-04T15:18:49.417Z,96749.22
2022-10-04T15:24:13.381Z,96746.94
2022-10-04T15:29:37.995Z,96747.56
2022-10-04T15:34:59.041Z,96752.13
2022-10-04T15:40:35.399Z,96736.22
2022-10-04T15:46:18.627Z,96762.25
2022-10-04T15:51:42.805Z,96765.97
2022-10-04T15:57:10.005Z,96764.88
2022-10-04T16:02:49.047Z,96772.47
2022-10-04T16:08:00.708Z,96772.00
2022-10-04T16:13:17.607Z,96737.59
2022-10-04T16:18:46.080Z,96785.16
2022-10-04T16:24:20.745Z,96747.59
2022-10-04T16:29:57.923Z,96799.25
2022-10-04T16:35:37.677Z,96811.75
2022-10-04T16:40:51.730Z,96800.84
2022-10-04T16:46:10.277Z,96823.00
2022-10-04T16:51:18.845Z,96826.22
2022-10-04T17:02:00.972Z,96842.75
2022-10-04T17:07:41.635Z,96843.84
2022-10-04T17:13:07.431Z,96858.78
2022-10-04T17:18:20.142Z,96822.78
2022-10-04T17:23:25.485Z,96873.38
2022-10-04T17:28:34.413Z,96877.59
2022-10-04T17:33:59.385Z,96839.31
2022-10-04T17:39:39.927Z,96878.47
2022-10-04T17:45:19.300Z,96894.88
2022-10-04T17:51:01.062Z,96871.53
2022-10-04T17:56:07.367Z,96910.63
2022-10-04T18:01:28.508Z,96846.75
2022-10-04T18:06:43.419Z,96931.00
2022-10-04T18:11:49.499Z,96929.84
2022-10-04T18:17:01.137Z,96918.94
2022-10-04T18:22:17.113Z,96917.47
2022-10-04T18:27:24.726Z,96990.50
2022-10-04T18:32:27.298Z,96981.94
2022-10-04T18:37:32.264Z,96979.03
2022-10-04T18:42:42.584Z,96955.94
2022-10-04T18:47:44.995Z,96977.22
2022-10-04T18:52:56.076Z,96984.06
2022-10-04T18:58:43.443Z,96994.78
2022-10-04T19:04:03.322Z,96942.91
2022-10-04T19:09:50.579Z,96932.44
2022-10-04T19:15:26.846Z,96987.16
2022-10-04T19:20:29.078Z,96977.50
2022-10-04T19:26:17.707Z,96998.03
2022-10-04T19:31:24.651Z,96974.25
2022-10-04T19:36:33.607Z,97009.06
2022-10-04T19:42:04.874Z,96987.06
2022-10-04T19:47:20.038Z,97009.78
2022-10-04T19:52:34.627Z,97012.41
2022-10-04T19:57:39.608Z,97008.72
2022-10-04T20:02:48.981Z,96970.53
2022-10-04T20:08:06.653Z,97024.59
2022-10-04T20:13:56.886Z,97022.38
2022-10-04T20:19:00.238Z,97013.19
2022-10-04T20:24:02.665Z,96951.31
2022-10-04T20:29:04.762Z,97025.72
2022-10-04T20:34:44.396Z,97042.00
2022-10-04T20:39:46.632Z,97049.88
2022-10-04T20:44:57.825Z,97035.00
2022-10-04T20:50:02.338Z,97031.53
2022-10-04T20:55:30.272Z,97059.47
2022-10-04T21:00:34.836Z,97050.53
2022-10-04T21:05:37.555Z,97030.31
2022-10-04T21:10:39.836Z,97004.78
2022-10-04T21:15:56.352Z,97076.25
2022-10-04T21:20:58.753Z,97079.06
2022-10-04T21:26:21.242Z,97085.47
2022-10-04T21:31:23.737Z,97069.16
2022-10-04T21:36:26.004Z,97069.00
2022-10-04T21:41:28.281Z,97070.91
2022-10-04T21:46:30.573Z,97105.50
2022-10-04T21:51:36.690Z,97055.25
2022-10-04T21:56:38.988Z,97068.25
2022-10-04T22:01:41.270Z,97039.69
